Time;durP1;ratioP1;P1;durP2;ratioP2;P2;SDS_P1;SDS_P2;PMS_P1;PMS_P2;Temp;Humidity;BMP_temperature;BMP_pressure;BME280_temperature;BME280_humidity;BME280_pressure;Samples;Min_cycle;Max_cycle;Signal;HPM_P1;HPM_P2
2023/01/21 00:07:38;;;;;;;0.47;0.20;;;-4.60;90.10;;;;;;20912507;28;20458;-58
2023/01/21 00:17:42;;;;;;;1.05;0.20;;;-4.50;90.20;;;;;;20911452;28;20063;-58
2023/01/21 00:27:44;;;;;;;0.60;0.20;;;-4.40;89.30;;;;;;20909504;28;20037;-58
2023/01/21 00:37:46;;;;;;;0.43;0.20;;;-4.50;90.10;;;;;;20909648;28;20037;-59
2023/01/21 00:47:48;;;;;;;1.38;0.40;;;-4.60;90.30;;;;;;20909392;28;20066;-58
2023/01/21 00:57:51;;;;;;;0.57;0.15;;;-4.60;90.20;;;;;;20908708;28;20033;-58
2023/01/21 01:07:53;;;;;;;0.43;0.20;;;-4.70;90.50;;;;;;20907223;28;20548;-57
2023/01/21 01:17:55;;;;;;;0.82;0.15;;;-4.80;90.30;;;;;;20907596;28;20486;-57
2023/01/21 01:27:57;;;;;;;0.70;0.20;;;-4.60;90.40;;;;;;20888666;28;20025;-56
2023/01/21 01:38:06;;;;;;;0.35;0.20;;;-4.70;90.60;;;;;;20906318;28;20032;-57
2023/01/21 01:48:14;;;;;;;0.32;0.10;;;-4.60;89.80;;;;;;20904339;28;20029;-57
2023/01/21 01:58:17;;;;;;;0.88;0.20;;;-4.50;89.50;;;;;;20902538;28;20367;-57
2023/01/21 02:08:20;;;;;;;0.43;0.20;;;-4.50;89.40;;;;;;20884417;28;20024;-57
2023/01/21 02:19:17;;;;;;;1.00;0.25;;;-4.70;90.30;;;;;;20902660;28;20029;-58
2023/01/21 02:29:39;;;;;;;0.50;0.10;;;-4.80;90.50;;;;;;20678562;28;20490;-58
2023/01/21 02:40:12;;;;;;;0.30;0.10;;;-4.80;90.70;;;;;;20688209;28;20050;-57
2023/01/21 02:50:26;;;;;;;0.35;0.10;;;-4.80;90.50;;;;;;20660204;28;20083;-57
2023/01/21 03:01:06;;;;;;;0.20;0.10;;;-4.70;90.10;;;;;;20809123;28;20095;-57
2023/01/21 03:11:11;;;;;;;0.37;0.17;;;-4.70;89.90;;;;;;20915115;28;20029;-58
2023/01/21 03:21:18;;;;;;;0.10;0.10;;;-4.80;90.60;;;;;;20914100;28;20063;-57
2023/01/21 03:31:32;;;;;;;0.10;0.10;;;-4.70;90.20;;;;;;20915473;28;20029;-57
2023/01/21 03:41:37;;;;;;;0.13;0.10;;;-4.80;90.40;;;;;;20910808;28;20048;-58
2023/01/21 03:51:44;;;;;;;0.20;0.10;;;-4.70;89.60;;;;;;20912862;28;20033;-58
2023/01/21 04:01:45;;;;;;;0.17;0.00;;;-4.60;89.50;;;;;;20905534;28;20045;-60
2023/01/21 04:11:47;;;;;;;0.10;0.00;;;-4.60;90.10;;;;;;20907822;28;20108;-60
2023/01/21 04:21:49;;;;;;;0.47;0.10;;;-4.70;88.90;;;;;;20908027;28;20485;-59
2023/01/21 04:31:50;;;;;;;0.10;0.00;;;-4.30;87.90;;;;;;20907978;28;20037;-59
2023/01/21 04:41:52;;;;;;;0.47;0.13;;;-4.30;87.10;;;;;;20905499;28;20095;-59
2023/01/21 04:51:54;;;;;;;0.20;0.00;;;-4.30;87.60;;;;;;20904992;28;20032;-60
2023/01/21 05:01:55;;;;;;;0.15;0.10;;;-4.20;86.50;;;;;;20859936;28;1385994;-60
2023/01/21 05:11:57;;;;;;;0.75;0.20;;;-4.40;86.80;;;;;;20907753;28;20037;-60
2023/01/21 05:21:58;;;;;;;0.10;0.10;;;-4.40;88.40;;;;;;20907122;28;20486;-60
2023/01/21 05:32:00;;;;;;;0.30;0.10;;;-4.60;87.90;;;;;;20905654;28;20036;-59
2023/01/21 05:42:02;;;;;;;0.52;0.20;;;-4.60;88.00;;;;;;20903137;28;20430;-60
2023/01/21 05:52:04;;;;;;;0.35;0.10;;;-4.60;89.00;;;;;;20904282;28;20091;-60
2023/01/21 06:02:05;;;;;;;0.50;0.20;;;-4.60;88.70;;;;;;20862201;28;20099;-59
2023/01/21 06:12:07;;;;;;;0.75;0.20;;;-4.70;89.70;;;;;;20860161;28;20486;-60
2023/01/21 06:22:16;;;;;;;0.28;0.10;;;-4.80;90.00;;;;;;20863998;28;20041;-60
2023/01/21 06:32:17;;;;;;;0.20;0.10;;;-4.60;88.50;;;;;;20853595;28;20102;-60
2023/01/21 06:42:19;;;;;;;0.30;0.20;;;-4.50;89.00;;;;;;20836201;28;20040;-58
2023/01/21 06:52:22;;;;;;;0.30;0.10;;;-4.70;89.40;;;;;;20866411;28;20033;-59
2023/01/21 07:02:23;;;;;;;0.38;0.10;;;-4.70;89.30;;;;;;20892750;28;20049;-59
2023/01/21 07:12:25;;;;;;;0.57;0.20;;;-4.60;89.10;;;;;;20881983;28;20099;-60
2023/01/21 07:22:27;;;;;;;0.70;0.20;;;-4.40;89.00;;;;;;20899693;28;20224;-60
2023/01/21 07:32:29;;;;;;;0.10;0.08;;;-4.50;89.40;;;;;;20899162;28;20059;-60
2023/01/21 07:42:30;;;;;;;0.45;0.20;;;-4.30;89.10;;;;;;20896659;28;20463;-60
2023/01/21 07:52:32;;;;;;;0.30;0.10;;;-4.10;89.60;;;;;;20905640;28;20103;-60
2023/01/21 08:02:33;;;;;;;0.30;0.10;;;-4.10;89.40;;;;;;20913492;28;20109;-60
2023/01/21 08:12:35;;;;;;;0.50;0.10;;;-3.70;87.20;;;;;;20912885;28;20086;-60
2023/01/21 08:22:38;;;;;;;0.32;0.10;;;-3.10;86.70;;;;;;20911568;28;20036;-58
2023/01/21 08:32:40;;;;;;;0.65;0.17;;;-2.40;84.70;;;;;;20911311;28;20029;-59
2023/01/21 08:42:41;;;;;;;0.20;0.10;;;-2.10;85.50;;;;;;20909449;28;20037;-60
2023/01/21 08:52:53;;;;;;;0.13;0.08;;;-2.00;85.10;;;;;;20909076;28;20540;-59
2023/01/21 09:02:55;;;;;;;0.52;0.20;;;-2.00;85.20;;;;;;20907348;28;20406;-57
2023/01/21 09:12:56;;;;;;;8.25;0.40;;;-1.80;85.10;;;;;;20906874;28;20033;-60
2023/01/21 09:22:58;;;;;;;0.75;0.20;;;-1.30;83.00;;;;;;20903032;28;20429;-58
2023/01/21 09:33:00;;;;;;;1.13;0.10;;;-0.80;81.50;;;;;;20904230;28;20047;-59
2023/01/21 09:43:10;;;;;;;0.25;0.10;;;-0.70;84.20;;;;;;20900785;28;20091;-57
2023/01/21 09:53:27;;;;;;;0.53;0.20;;;-0.30;80.70;;;;;;20904070;28;20025;-60
2023/01/21 10:03:52;;;;;;;0.60;0.15;;;-0.20;79.70;;;;;;20900846;28;20091;-60
2023/01/21 10:14:21;;;;;;;0.28;0.10;;;-0.20;80.90;;;;;;20900436;28;20029;-47
2023/01/21 10:24:34;;;;;;;0.20;0.13;;;0.20;78.80;;;;;;20900010;28;20470;-50
2023/01/21 10:34:43;;;;;;;1.02;0.20;;;0.40;80.00;;;;;;20897580;28;20560;-50
2023/01/21 10:45:25;;;;;;;0.85;0.20;;;0.60;80.00;;;;;;20900743;28;20029;-46
2023/01/21 10:55:42;;;;;;;0.73;0.20;;;0.80;79.40;;;;;;20884897;28;20397;-46
2023/01/21 11:05:45;;;;;;;0.15;0.10;;;1.10;78.20;;;;;;20899758;28;20033;-50
2023/01/21 11:15:55;;;;;;;0.35;0.10;;;1.80;77.70;;;;;;20899147;28;20095;-46
2023/01/21 11:26:03;;;;;;;0.67;0.20;;;2.10;75.10;;;;;;20902164;28;20029;-50
2023/01/21 11:36:14;;;;;;;1.13;0.20;;;1.70;75.00;;;;;;20914750;28;20366;-50
2023/01/21 11:46:21;;;;;;;0.63;0.10;;;0.80;76.50;;;;;;20911837;28;20106;-47
2023/01/21 11:56:22;;;;;;;0.30;0.10;;;0.40;76.20;;;;;;20911190;28;20113;-49
2023/01/21 12:06:31;;;;;;;0.20;0.10;;;0.20;78.10;;;;;;20912016;28;20025;-50
2023/01/21 12:16:53;;;;;;;0.25;0.13;;;0.10;78.40;;;;;;20911790;28;20425;-48
2023/01/21 12:27:12;;;;;;;0.10;0.10;;;0.30;77.20;;;;;;20908460;28;20367;-56
2023/01/21 12:37:28;;;;;;;1.67;0.30;;;0.50;77.50;;;;;;20905358;28;20486;-50
2023/01/21 12:47:54;;;;;;;0.47;0.05;;;1.10;76.20;;;;;;20889410;28;20022;-46
2023/01/21 12:58:01;;;;;;;0.38;0.10;;;1.20;77.10;;;;;;20909566;28;20572;-48
2023/01/21 13:08:27;;;;;;;0.20;0.10;;;1.10;75.50;;;;;;20906587;28;20474;-47
2023/01/21 13:18:33;;;;;;;0.35;0.08;;;1.40;75.60;;;;;;20906218;28;20029;-49
2023/01/21 13:28:47;;;;;;;0.30;0.17;;;1.40;77.40;;;;;;20906681;28;20025;-48
2023/01/21 13:39:11;;;;;;;0.63;0.13;;;1.10;77.60;;;;;;20904523;28;20032;-50
2023/01/21 13:49:50;;;;;;;0.52;0.10;;;1.10;75.00;;;;;;20902728;28;20356;-51
2023/01/21 14:00:00;;;;;;;1.58;0.10;;;1.10;75.90;;;;;;20899676;28;20052;-58
2023/01/21 14:10:24;;;;;;;0.20;0.10;;;1.20;76.70;;;;;;20901389;28;20452;-58
2023/01/21 14:20:29;;;;;;;0.70;0.13;;;1.00;76.10;;;;;;20901167;28;20033;-57
2023/01/21 14:30:45;;;;;;;0.63;0.10;;;0.40;78.10;;;;;;20899964;28;20033;-60
2023/01/21 14:41:02;;;;;;;0.38;0.00;;;0.00;79.60;;;;;;20883929;28;20103;-58
2023/01/21 14:51:07;;;;;;;0.15;0.10;;;-0.20;80.50;;;;;;20898111;28;20375;-59
2023/01/21 15:01:24;;;;;;;0.73;0.10;;;-0.20;82.00;;;;;;20905761;28;20091;-59
2023/01/21 15:11:39;;;;;;;0.08;0.00;;;-0.40;80.40;;;;;;20915266;28;20036;-58
2023/01/21 15:21:43;;;;;;;0.60;0.10;;;-0.50;78.90;;;;;;20910681;28;20040;-58
2023/01/21 15:31:45;;;;;;;0.50;0.10;;;-0.60;81.10;;;;;;20915646;28;20032;-58
2023/01/21 15:42:05;;;;;;;0.47;0.10;;;-0.80;80.50;;;;;;20915175;28;20025;-57
2023/01/21 15:52:18;;;;;;;0.28;0.15;;;-1.10;83.20;;;;;;20914264;28;20033;-58
2023/01/21 16:02:24;;;;;;;0.10;0.00;;;-1.40;85.00;;;;;;20913148;28;20037;-57
2023/01/21 16:12:42;;;;;;;0.55;0.13;;;-1.40;83.90;;;;;;20906914;28;20029;-58
2023/01/21 16:22:47;;;;;;;1.35;0.20;;;-1.60;86.10;;;;;;20910031;28;20036;-58
2023/01/21 16:33:09;;;;;;;0.30;0.10;;;-1.60;85.80;;;;;;20911129;28;20087;-58
2023/01/21 16:43:21;;;;;;;1.27;0.25;;;-1.60;86.10;;;;;;20906343;28;20044;-58
2023/01/21 16:53:24;;;;;;;0.40;0.20;;;-1.70;87.10;;;;;;20906915;28;20048;-57
2023/01/21 17:03:27;;;;;;;0.40;0.10;;;-1.70;87.10;;;;;;20890493;28;20045;-58
2023/01/21 17:13:30;;;;;;;1.52;0.20;;;-1.70;86.10;;;;;;20907499;28;20385;-58
2023/01/21 17:23:44;;;;;;;0.50;0.10;;;-1.80;87.10;;;;;;20905789;28;20029;-58
2023/01/21 17:34:04;;;;;;;0.40;0.10;;;-1.80;87.50;;;;;;20901991;28;20033;-58
2023/01/21 17:44:19;;;;;;;0.43;0.22;;;-1.90;88.80;;;;;;20905354;28;20029;-58
2023/01/21 17:54:24;;;;;;;0.45;0.20;;;-1.90;88.30;;;;;;20905730;28;20474;-57
2023/01/21 18:04:26;;;;;;;0.70;0.20;;;-1.80;88.30;;;;;;20903657;28;20041;-58
2023/01/21 18:14:31;;;;;;;0.43;0.10;;;-1.90;88.00;;;;;;20902661;28;20028;-57
2023/01/21 18:24:34;;;;;;;0.45;0.20;;;-1.90;89.10;;;;;;20902314;28;20044;-58
2023/01/21 18:34:36;;;;;;;1.33;0.55;;;-1.90;89.00;;;;;;20900825;28;20032;-58
2023/01/21 18:44:37;;;;;;;0.85;0.20;;;-1.80;87.80;;;;;;20900225;28;20094;-58
2023/01/21 18:54:40;;;;;;;0.35;0.20;;;-1.80;88.80;;;;;;20883261;28;20032;-58
2023/01/21 19:04:42;;;;;;;1.02;0.20;;;-1.80;88.30;;;;;;20848953;28;20128;-57
2023/01/21 19:14:44;;;;;;;0.22;0.10;;;-1.80;88.90;;;;;;20866026;28;20052;-58
2023/01/21 19:24:46;;;;;;;0.28;0.10;;;-1.90;87.40;;;;;;20849757;28;20040;-58
2023/01/21 19:34:48;;;;;;;0.85;0.20;;;-1.90;88.00;;;;;;20830920;28;20037;-57
2023/01/21 19:44:50;;;;;;;0.43;0.17;;;-2.00;88.30;;;;;;20850606;28;20041;-58
2023/01/21 19:54:51;;;;;;;0.82;0.22;;;-1.90;88.30;;;;;;20861471;28;20094;-58
2023/01/21 20:04:53;;;;;;;0.30;0.20;;;-2.00;89.50;;;;;;20912663;28;20037;-58
2023/01/21 20:14:55;;;;;;;0.77;0.28;;;-2.10;89.00;;;;;;20911346;28;20033;-58
2023/01/21 20:24:56;;;;;;;0.85;0.20;;;-2.10;90.20;;;;;;20911740;28;20037;-58
2023/01/21 20:34:58;;;;;;;0.82;0.15;;;-2.10;87.80;;;;;;20910502;28;20083;-57
2023/01/21 20:45:00;;;;;;;0.60;0.28;;;-2.10;88.90;;;;;;20909994;28;20051;-57
2023/01/21 20:55:02;;;;;;;1.08;0.30;;;-2.10;87.20;;;;;;20908791;28;20045;-57
2023/01/21 21:05:04;;;;;;;0.90;0.30;;;-2.20;88.20;;;;;;20908303;28;20044;-58
2023/01/21 21:15:07;;;;;;;0.25;0.10;;;-2.00;87.20;;;;;;20907013;28;20029;-57
2023/01/21 21:25:19;;;;;;;0.30;0.10;;;-2.00;86.40;;;;;;20906606;28;20424;-57
2023/01/21 21:35:38;;;;;;;1.45;0.20;;;-1.80;85.90;;;;;;20906036;28;20331;-57
2023/01/21 21:48:36;;;;;;;1.13;0.30;;;-1.90;85.50;;;;;;20903110;28;20091;-57
2023/01/21 21:56:07;;;;;;;0.65;0.28;;;-1.90;85.60;;;;;;20904594;28;20098;-56
2023/01/21 22:06:10;;;;;;;0.68;0.20;;;-2.00;85.70;;;;;;20885269;28;20036;-57
2023/01/21 22:16:15;;;;;;;0.88;0.22;;;-1.90;84.60;;;;;;20903203;28;20025;-57
2023/01/21 22:26:19;;;;;;;0.25;0.15;;;-1.90;84.80;;;;;;20901309;28;20139;-58
2023/01/21 22:36:23;;;;;;;0.82;0.35;;;-1.90;85.70;;;;;;20900108;28;20108;-58
2023/01/21 22:46:28;;;;;;;0.73;0.30;;;-2.10;86.30;;;;;;20853430;28;20280;-58
2023/01/21 22:56:30;;;;;;;0.55;0.28;;;-2.20;86.20;;;;;;20857446;28;20103;-57
2023/01/21 23:06:32;;;;;;;0.40;0.20;;;-2.20;86.10;;;;;;20862769;28;20033;-58
2023/01/21 23:16:33;;;;;;;0.80;0.30;;;-2.30;85.50;;;;;;20861110;28;20029;-57
2023/01/21 23:26:36;;;;;;;0.75;0.30;;;-2.30;86.40;;;;;;20875532;28;20029;-58
2023/01/21 23:36:37;;;;;;;0.95;0.32;;;-2.30;86.60;;;;;;20878275;28;20509;-58
2023/01/21 23:46:39;;;;;;;0.88;0.20;;;-2.30;87.90;;;;;;20875939;28;20073;-58
2023/01/21 23:56:40;;;;;;;1.35;0.30;;;-2.40;87.30;;;;;;20881977;28;20033;-57
